createdAt,value
2022-11-20T00:00:07.480Z,19.90
2022-11-20T00:02:33.836Z,19.90
2022-11-20T00:05:00.198Z,19.89
2022-11-20T00:07:26.622Z,19.88
2022-11-20T00:09:53.020Z,19.87
2022-11-20T00:12:19.429Z,19.85
2022-11-20T00:14:45.789Z,19.85
2022-11-20T00:17:12.180Z,19.83
2022-11-20T00:19:38.532Z,19.83
2022-11-20T00:22:04.838Z,19.81
2022-11-20T00:24:31.194Z,19.81
2022-11-20T00:26:57.555Z,19.80
2022-11-20T00:29:23.914Z,19.79
2022-11-20T00:31:50.217Z,19.78
2022-11-20T00:34:16.569Z,19.78
2022-11-20T00:36:42.982Z,19.78
2022-11-20T00:39:09.374Z,19.76
2022-11-20T00:41:35.756Z,19.75
2022-11-20T00:44:02.240Z,19.74
2022-11-20T00:46:28.917Z,19.74
2022-11-20T00:48:55.742Z,19.75
2022-11-20T00:51:24.469Z,19.72
2022-11-20T00:53:51.429Z,19.70
2022-11-20T00:56:19.900Z,19.69
2022-11-20T00:58:49.436Z,19.70
2022-11-20T01:01:18.526Z,19.68
2022-11-20T01:03:48.089Z,19.67
2022-11-20T01:06:18.813Z,19.66
2022-11-20T01:08:46.187Z,19.65
2022-11-20T01:11:16.785Z,19.65
2022-11-20T01:13:44.079Z,19.64
2022-11-20T01:16:13.984Z,19.62
2022-11-20T01:18:43.589Z,19.62
2022-11-20T01:21:21.927Z,19.61
2022-11-20T01:23:49.903Z,19.61
2022-11-20T01:26:19.470Z,19.59
2022-11-20T01:28:46.246Z,19.60
2022-11-20T01:31:21.062Z,19.57
2022-11-20T01:33:49.913Z,19.56
2022-11-20T01:36:18.354Z,19.56
2022-11-20T01:38:44.994Z,19.56
2022-11-20T01:41:33.125Z,19.55
2022-11-20T01:44:00.295Z,19.54
2022-11-20T01:46:26.727Z,19.53
2022-11-20T01:49:03.195Z,19.52
2022-11-20T01:51:47.176Z,19.51
2022-11-20T01:54:20.427Z,19.50
2022-11-20T01:56:49.110Z,19.50
2022-11-20T01:59:18.452Z,19.47
2022-11-20T02:01:44.914Z,19.48
2022-11-20T02:04:12.040Z,19.48
2022-11-20T02:06:48.145Z,19.47
2022-11-20T02:09:15.382Z,19.46
2022-11-20T02:11:41.773Z,19.45
2022-11-20T02:14:09.462Z,19.45
2022-11-20T02:16:40.023Z,19.43
2022-11-20T02:19:14.717Z,19.42
2022-11-20T02:21:53.306Z,19.40
2022-11-20T02:24:21.129Z,19.41
2022-11-20T02:26:54.593Z,19.38
2022-11-20T02:29:27.543Z,19.38
2022-11-20T02:31:56.108Z,19.38
2022-11-20T02:34:22.460Z,19.37
2022-11-20T02:36:50.472Z,19.35
2022-11-20T02:39:17.923Z,19.35
2022-11-20T02:41:44.485Z,19.34
2022-11-20T02:44:10.837Z,19.32
2022-11-20T02:46:37.814Z,19.32
2022-11-20T02:49:05.314Z,19.32
2022-11-20T02:51:32.790Z,19.30
2022-11-20T02:53:59.145Z,19.29
2022-11-20T02:56:26.594Z,19.29
2022-11-20T02:58:53.787Z,19.27
2022-11-20T03:01:20.176Z,19.27
2022-11-20T03:03:46.721Z,19.26
2022-11-20T03:06:13.084Z,19.26
2022-11-20T03:08:39.410Z,19.24
2022-11-20T03:11:07.941Z,19.24
2022-11-20T03:13:34.993Z,19.23
2022-11-20T03:16:10.357Z,19.22
2022-11-20T03:18:36.675Z,19.22
2022-11-20T03:21:03.039Z,19.20
2022-11-20T03:23:31.254Z,19.19
2022-11-20T03:26:07.449Z,19.19
2022-11-20T03:28:33.744Z,19.18
2022-11-20T03:31:06.378Z,19.17
2022-11-20T03:33:32.721Z,19.17
2022-11-20T03:36:03.912Z,19.17
2022-11-20T03:38:32.221Z,19.15
2022-11-20T03:41:25.550Z,19.13
2022-11-20T03:43:54.655Z,19.14
2022-11-20T03:46:21.409Z,19.13
2022-11-20T03:48:51.537Z,19.12
2022-11-20T03:51:20.695Z,19.10
2022-11-20T03:53:48.214Z,19.09
2022-11-20T03:56:17.480Z,19.09
2022-11-20T03:58:43.915Z,19.08
2022-11-20T04:01:22.067Z,19.07
2022-11-20T04:03:48.597Z,19.06
2022-11-20T04:06:21.252Z,19.05
2022-11-20T04:08:53.416Z,19.05
2022-11-20T04:11:23.262Z,19.02
2022-11-20T04:13:55.385Z,19.01
2022-11-20T04:16:23.118Z,19.02
2022-11-20T04:18:53.994Z,19.01
2022-11-20T04:21:21.346Z,19.01
2022-11-20T04:23:47.653Z,19.00
2022-11-20T04:26:14.399Z,18.98
2022-11-20T04:28:40.759Z,18.97
2022-11-20T04:31:15.521Z,18.96
2022-11-20T04:33:42.442Z,18.95
2022-11-20T04:36:12.526Z,18.94
2022-11-20T04:38:39.662Z,18.94
2022-11-20T04:41:07.915Z,18.94
2022-11-20T04:43:34.783Z,18.92
2022-11-20T04:46:01.725Z,18.92
2022-11-20T04:48:29.492Z,18.91
2022-11-20T04:50:56.170Z,18.91
2022-11-20T04:53:23.324Z,18.88
2022-11-20T04:55:49.665Z,18.89
2022-11-20T04:58:17.767Z,18.89
2022-11-20T05:00:44.115Z,18.88
2022-11-20T05:03:10.486Z,18.87
2022-11-20T05:05:36.916Z,18.86
2022-11-20T05:08:03.366Z,18.85
2022-11-20T05:10:29.729Z,18.83
2022-11-20T05:12:56.451Z,18.83
2022-11-20T05:15:22.813Z,18.82
2022-11-20T05:17:50.110Z,18.81
2022-11-20T05:20:16.891Z,18.81
2022-11-20T05:22:43.811Z,18.80
2022-11-20T05:25:11.130Z,18.79
2022-11-20T05:27:37.685Z,18.78
2022-11-20T05:30:05.443Z,18.77
2022-11-20T05:32:31.897Z,18.77
2022-11-20T05:34:58.206Z,18.75
2022-11-20T05:37:24.535Z,18.76
2022-11-20T05:39:50.886Z,18.75
2022-11-20T05:42:32.507Z,18.73
2022-11-20T05:45:00.225Z,18.73
2022-11-20T05:47:28.489Z,18.73
2022-11-20T05:49:55.119Z,18.73
2022-11-20T05:52:21.675Z,18.75
2022-11-20T05:54:48.039Z,18.75
2022-11-20T05:57:14.405Z,18.76
2022-11-20T05:59:40.834Z,18.79
2022-11-20T06:02:07.203Z,18.79
2022-11-20T06:04:33.603Z,18.79
2022-11-20T06:06:59.940Z,18.81
2022-11-20T06:09:26.340Z,18.81
2022-11-20T06:11:52.666Z,18.82
2022-11-20T06:14:19.029Z,18.83
2022-11-20T06:16:45.334Z,18.86
2022-11-20T06:19:11.702Z,18.86
2022-11-20T06:21:38.061Z,18.87
2022-11-20T06:24:04.556Z,18.89
2022-11-20T06:26:31.308Z,18.90
2022-11-20T06:28:57.726Z,18.90
2022-11-20T06:31:25.783Z,18.91
2022-11-20T06:33:52.769Z,18.94
2022-11-20T06:36:21.738Z,18.95
2022-11-20T06:38:48.108Z,18.96
2022-11-20T06:41:17.604Z,18.97
2022-11-20T06:43:44.147Z,18.98
2022-11-20T06:46:12.550Z,19.00
2022-11-20T06:48:38.966Z,19.03
2022-11-20T06:51:06.889Z,19.03
2022-11-20T06:53:33.777Z,19.04
2022-11-20T06:56:00.470Z,19.05
2022-11-20T06:58:31.833Z,19.05
2022-11-20T07:01:02.932Z,19.06
2022-11-20T07:03:29.383Z,19.07
2022-11-20T07:05:57.260Z,19.08
2022-11-20T07:08:24.400Z,19.10
2022-11-20T07:10:50.850Z,19.11
2022-11-20T07:13:17.361Z,19.10
2022-11-20T07:15:43.767Z,19.08
2022-11-20T07:18:10.316Z,19.11
2022-11-20T07:20:36.667Z,19.12
2022-11-20T07:23:02.977Z,19.12
2022-11-20T07:25:29.846Z,19.13
2022-11-20T07:27:59.742Z,19.15
2022-11-20T07:30:26.583Z,19.18
2022-11-20T07:32:54.156Z,19.19
2022-11-20T07:35:20.939Z,19.17
2022-11-20T07:37:48.203Z,19.17
2022-11-20T07:40:15.077Z,19.16
2022-11-20T07:42:52.274Z,19.18
2022-11-20T07:45:19.735Z,19.23
2022-11-20T07:47:46.104Z,19.25
2022-11-20T07:50:13.101Z,19.27
2022-11-20T07:52:40.089Z,19.28
2022-11-20T07:55:07.333Z,19.30
2022-11-20T07:57:33.790Z,19.30
2022-11-20T08:00:00.178Z,19.32
2022-11-20T08:02:26.635Z,19.34
2022-11-20T08:04:52.993Z,19.35
2022-11-20T08:07:19.376Z,19.34
2022-11-20T08:09:45.693Z,19.35
2022-11-20T08:12:38.526Z,19.36
2022-11-20T08:15:12.509Z,19.38
2022-11-20T08:17:39.399Z,19.39
2022-11-20T08:20:06.005Z,19.39
2022-11-20T08:22:32.869Z,19.39
2022-11-20T08:24:59.206Z,19.38
2022-11-20T08:27:25.577Z,19.38
2022-11-20T08:29:51.878Z,19.38
2022-11-20T08:32:18.431Z,19.39
2022-11-20T08:34:44.765Z,19.39
2022-11-20T08:37:11.147Z,19.40
2022-11-20T08:39:37.454Z,19.42
2022-11-20T08:42:08.367Z,19.40
2022-11-20T08:44:34.820Z,19.38
2022-11-20T08:47:01.555Z,19.39
2022-11-20T08:49:27.865Z,19.40
2022-11-20T08:51:56.112Z,19.41
2022-11-20T08:54:23.482Z,19.42
2022-11-20T08:56:50.260Z,19.44
2022-11-20T08:59:27.377Z,19.44
2022-11-20T09:02:02.840Z,19.45
2022-11-20T09:04:29.467Z,19.45
2022-11-20T09:06:55.799Z,19.45
2022-11-20T09:09:22.413Z,19.48
2022-11-20T09:11:50.971Z,19.50
2022-11-20T09:14:17.467Z,19.50
2022-11-20T09:16:46.070Z,19.50
2022-11-20T09:19:34.633Z,19.53
2022-11-20T09:21:59.963Z,19.55
2022-11-20T09:24:27.335Z,19.54
2022-11-20T09:26:56.655Z,19.54
2022-11-20T09:29:23.389Z,19.54
2022-11-20T09:31:49.986Z,19.56
2022-11-20T09:34:16.573Z,19.56
2022-11-20T09:36:42.935Z,19.58
2022-11-20T09:39:09.354Z,19.57
2022-11-20T09:41:48.764Z,19.54
2022-11-20T09:44:40.856Z,19.59
2022-11-20T09:47:44.637Z,19.62
2022-11-20T09:50:32.025Z,19.63
2022-11-20T09:53:25.737Z,19.64
2022-11-20T09:55:52.543Z,19.66
2022-11-20T09:58:46.006Z,19.67
2022-11-20T10:01:20.679Z,19.70
2022-11-20T10:03:56.841Z,19.69
2022-11-20T10:06:30.932Z,19.72
2022-11-20T10:09:12.510Z,19.73
2022-11-20T10:11:57.079Z,19.74
2022-11-20T10:14:53.153Z,19.75
2022-11-20T10:17:54.563Z,19.77
2022-11-20T10:20:36.938Z,19.76
2022-11-20T10:23:03.225Z,19.78
2022-11-20T10:25:40.208Z,19.79
2022-11-20T10:28:40.774Z,19.79
2022-11-20T10:31:28.308Z,19.81
2022-11-20T10:34:11.625Z,19.81
2022-11-20T10:36:56.689Z,19.81
2022-11-20T10:39:46.564Z,19.82
2022-11-20T10:42:18.373Z,19.83
2022-11-20T10:45:05.651Z,19.83
2022-11-20T10:47:32.950Z,19.84
2022-11-20T10:50:04.913Z,19.86
2022-11-20T10:53:00.039Z,19.87
2022-11-20T10:55:40.024Z,19.89
2022-11-20T10:58:28.868Z,19.90
2022-11-20T11:01:19.523Z,19.91
2022-11-20T11:03:45.950Z,19.90
2022-11-20T11:06:35.350Z,19.91
2022-11-20T11:09:14.313Z,19.91
2022-11-20T11:11:40.738Z,19.91
2022-11-20T11:14:11.646Z,19.93
2022-11-20T11:16:51.649Z,19.93
2022-11-20T11:19:18.207Z,19.94
2022-11-20T11:21:55.550Z,19.94
2022-11-20T11:24:41.574Z,19.96
2022-11-20T11:27:17.233Z,19.96
2022-11-20T11:29:44.518Z,19.96
2022-11-20T11:32:16.604Z,19.97
2022-11-20T11:34:42.939Z,19.98
2022-11-20T11:37:22.430Z,19.99
2022-11-20T11:40:04.005Z,19.99
2022-11-20T11:42:42.517Z,20.01
2022-11-20T11:45:18.472Z,20.00
2022-11-20T11:47:44.786Z,20.01
2022-11-20T11:50:11.082Z,20.03
2022-11-20T11:52:41.475Z,20.04
2022-11-20T11:55:15.285Z,20.03
2022-11-20T11:57:50.799Z,20.03
2022-11-20T12:00:20.934Z,20.05
2022-11-20T12:02:47.408Z,20.07
2022-11-20T12:05:25.483Z,20.08
2022-11-20T12:08:33.796Z,20.10
2022-11-20T12:11:30.423Z,20.10
2022-11-20T12:14:12.997Z,20.10
2022-11-20T12:16:40.123Z,20.13
2022-11-20T12:19:13.110Z,20.13
2022-11-20T12:21:57.271Z,20.15
2022-11-20T12:24:41.278Z,20.15
2022-11-20T12:27:22.794Z,20.17
2022-11-20T12:30:01.129Z,20.15
2022-11-20T12:33:15.368Z,20.18
2022-11-20T12:35:59.570Z,20.20
2022-11-20T12:39:01.138Z,20.21
2022-11-20T12:42:06.948Z,20.23
2022-11-20T12:45:09.819Z,20.23
2022-11-20T12:48:08.951Z,20.26
2022-11-20T12:51:13.607Z,20.25
2022-11-20T12:54:04.189Z,20.28
2022-11-20T12:57:00.802Z,20.29
2022-11-20T12:59:29.815Z,20.29
2022-11-20T13:02:20.323Z,20.30
2022-11-20T13:05:00.190Z,20.32
2022-11-20T13:07:29.097Z,20.31
2022-11-20T13:09:55.870Z,20.32
2022-11-20T13:13:20.963Z,20.33
2022-11-20T13:16:02.323Z,20.31
2022-11-20T13:18:35.778Z,20.32
2022-11-20T13:21:02.506Z,20.33
2022-11-20T13:23:29.693Z,20.33
2022-11-20T13:26:17.845Z,20.34
2022-11-20T13:28:44.254Z,20.35
2022-11-20T13:31:36.069Z,20.34
2022-11-20T13:34:06.645Z,20.36
2022-11-20T13:36:33.479Z,20.38
2022-11-20T13:39:00.303Z,20.38
2022-11-20T13:41:40.345Z,20.38
2022-11-20T13:44:40.117Z,20.38
2022-11-20T13:47:25.495Z,20.41
2022-11-20T13:49:57.893Z,20.43
2022-11-20T13:52:57.218Z,20.45
2022-11-20T13:55:43.690Z,20.44
2022-11-20T13:58:32.725Z,20.44
2022-11-20T14:01:08.944Z,20.44
2022-11-20T14:06:33.239Z,20.42
2022-11-20T14:09:00.490Z,20.42
2022-11-20T14:11:27.906Z,20.43
2022-11-20T14:14:01.705Z,20.43
2022-11-20T14:16:30.472Z,20.43
2022-11-20T14:18:58.721Z,20.43
2022-11-20T14:21:30.423Z,20.44
2022-11-20T14:24:07.231Z,20.45
2022-11-20T14:26:34.615Z,20.44
2022-11-20T14:29:01.170Z,20.45
2022-11-20T14:31:28.741Z,20.45
2022-11-20T14:33:55.885Z,20.46
2022-11-20T14:36:26.125Z,20.46
2022-11-20T14:38:53.736Z,20.48
2022-11-20T14:41:22.533Z,20.47
2022-11-20T14:43:55.171Z,20.48
2022-11-20T14:46:22.275Z,20.49
2022-11-20T14:48:54.860Z,20.49
2022-11-20T14:51:43.899Z,20.50
2022-11-20T14:54:13.335Z,20.51
2022-11-20T14:56:39.720Z,20.52
2022-11-20T14:59:06.786Z,20.51
2022-11-20T15:01:34.670Z,20.51
2022-11-20T15:04:02.281Z,20.51
2022-11-20T15:06:29.278Z,20.53
2022-11-20T15:08:55.761Z,20.53
2022-11-20T15:11:29.181Z,20.52
2022-11-20T15:13:56.183Z,20.53
2022-11-20T15:16:24.670Z,20.54
2022-11-20T15:18:51.657Z,20.55
2022-11-20T15:21:21.730Z,20.54
2022-11-20T15:23:48.402Z,20.55
2022-11-20T15:26:25.182Z,20.56
2022-11-20T15:28:51.737Z,20.56
2022-11-20T15:31:21.393Z,20.58
2022-11-20T15:33:48.395Z,20.58
2022-11-20T15:36:14.917Z,20.58
2022-11-20T15:38:41.622Z,20.57
2022-11-20T15:41:08.817Z,20.57
2022-11-20T15:43:35.719Z,20.56
2022-11-20T15:46:06.217Z,20.55
2022-11-20T15:48:37.678Z,20.55
2022-11-20T15:51:12.330Z,20.55
2022-11-20T15:53:40.121Z,20.55
2022-11-20T15:56:07.059Z,20.55
2022-11-20T15:58:33.359Z,20.58
2022-11-20T16:00:59.788Z,20.58
2022-11-20T16:03:26.257Z,20.58
2022-11-20T16:05:52.652Z,20.57
2022-11-20T16:08:19.279Z,20.60
2022-11-20T16:10:45.689Z,20.61
2022-11-20T16:13:37.062Z,20.61
2022-11-20T16:16:21.739Z,20.62
2022-11-20T16:18:48.171Z,20.62
2022-11-20T16:21:14.606Z,20.58
2022-11-20T16:23:41.576Z,20.57
2022-11-20T16:26:18.327Z,20.58
2022-11-20T16:28:44.699Z,20.60
2022-11-20T16:31:16.516Z,20.60
2022-11-20T16:33:43.451Z,20.61
2022-11-20T16:36:12.291Z,20.63
2022-11-20T16:38:39.046Z,20.62
2022-11-20T16:41:06.454Z,20.62
2022-11-20T16:43:33.080Z,20.66
2022-11-20T16:45:59.587Z,20.67
2022-11-20T16:48:25.963Z,20.67
2022-11-20T16:50:53.667Z,20.67
2022-11-20T16:53:21.461Z,20.67
2022-11-20T16:55:48.509Z,20.66
2022-11-20T16:58:15.896Z,20.67
2022-11-20T17:00:48.491Z,20.67
2022-11-20T17:03:17.975Z,20.67
2022-11-20T17:05:44.384Z,20.68
2022-11-20T17:08:10.757Z,20.67
2022-11-20T17:10:37.267Z,20.66
2022-11-20T17:13:03.684Z,20.67
2022-11-20T17:15:31.208Z,20.66
2022-11-20T17:17:57.743Z,20.69
2022-11-20T17:20:24.098Z,20.72
2022-11-20T17:22:50.479Z,20.74
2022-11-20T17:25:16.950Z,20.78
2022-11-20T17:27:43.321Z,20.81
2022-11-20T17:30:09.817Z,20.82
2022-11-20T17:32:36.136Z,20.85
2022-11-20T17:35:02.433Z,20.84
2022-11-20T17:37:28.788Z,20.85
2022-11-20T17:39:55.105Z,20.87
2022-11-20T17:42:27.245Z,20.88
2022-11-20T17:44:53.598Z,20.88
2022-11-20T17:47:19.969Z,20.89
2022-11-20T17:49:46.350Z,20.90
2022-11-20T17:52:12.729Z,20.91
2022-11-20T17:54:39.114Z,20.91
2022-11-20T17:57:25.114Z,20.92
2022-11-20T17:59:51.433Z,20.94
2022-11-20T18:02:17.790Z,20.95
2022-11-20T18:04:44.832Z,20.96
2022-11-20T18:07:11.241Z,20.96
2022-11-20T18:09:37.674Z,20.96
2022-11-20T18:12:04.251Z,20.97
2022-11-20T18:14:34.570Z,20.98
2022-11-20T18:17:12.297Z,20.99
2022-11-20T18:19:51.673Z,21.00
2022-11-20T18:22:27.561Z,21.01
2022-11-20T18:24:54.330Z,21.02
2022-11-20T18:27:21.820Z,21.03
2022-11-20T18:29:51.512Z,21.02
2022-11-20T18:32:20.276Z,21.02
2022-11-20T18:34:46.674Z,21.04
2022-11-20T18:37:15.270Z,21.04
2022-11-20T18:39:42.105Z,21.05
2022-11-20T18:42:34.871Z,21.05
2022-11-20T18:45:04.123Z,21.05
2022-11-20T18:47:33.933Z,21.07
2022-11-20T18:50:01.727Z,21.07
2022-11-20T18:52:34.018Z,21.08
2022-11-20T18:55:02.063Z,21.10
2022-11-20T18:57:29.826Z,21.10
2022-11-20T19:00:06.364Z,21.10
2022-11-20T19:02:41.084Z,21.12
2022-11-20T19:05:08.982Z,21.13
2022-11-20T19:07:35.453Z,21.12
2022-11-20T19:10:04.052Z,21.12
2022-11-20T19:12:30.837Z,21.13
2022-11-20T19:14:57.238Z,21.15
2022-11-20T19:17:23.559Z,21.14
2022-11-20T19:19:50.400Z,21.14
2022-11-20T19:22:17.016Z,21.15
2022-11-20T19:24:43.445Z,21.16
2022-11-20T19:27:09.901Z,21.21
2022-11-20T19:29:36.580Z,21.22
2022-11-20T19:32:04.357Z,21.20
2022-11-20T19:34:30.918Z,21.19
2022-11-20T19:36:57.287Z,21.20
2022-11-20T19:39:23.870Z,21.21
2022-11-20T19:41:50.350Z,21.20
2022-11-20T19:44:17.536Z,21.18
2022-11-20T19:46:44.103Z,21.22
2022-11-20T19:49:12.998Z,21.21
2022-11-20T19:51:43.949Z,21.21
2022-11-20T19:54:10.261Z,21.22
2022-11-20T19:56:36.620Z,21.23
2022-11-20T19:59:03.115Z,21.23
2022-11-20T20:01:31.543Z,21.24
2022-11-20T20:04:04.989Z,21.25
2022-11-20T20:06:33.380Z,21.25
2022-11-20T20:09:01.282Z,21.25
2022-11-20T20:11:29.835Z,21.25
2022-11-20T20:13:56.447Z,21.24
2022-11-20T20:16:24.507Z,21.25
2022-11-20T20:18:58.336Z,21.25
2022-11-20T20:21:25.169Z,21.24
2022-11-20T20:23:53.981Z,21.23
2022-11-20T20:26:22.062Z,21.24
2022-11-20T20:28:48.429Z,21.22
2022-11-20T20:31:18.374Z,21.23
2022-11-20T20:33:45.435Z,21.23
2022-11-20T20:36:15.765Z,21.23
2022-11-20T20:38:43.205Z,21.23
2022-11-20T20:41:09.951Z,21.22
2022-11-20T20:43:57.255Z,21.22
2022-11-20T20:46:24.130Z,21.23
2022-11-20T20:48:54.376Z,21.22
2022-11-20T20:51:21.835Z,21.21
2022-11-20T20:53:48.224Z,21.20
2022-11-20T20:56:14.712Z,21.18
2022-11-20T20:58:41.124Z,21.19
2022-11-20T21:01:13.523Z,21.18
2022-11-20T21:03:40.394Z,21.19
2022-11-20T21:06:09.725Z,21.18
2022-11-20T21:08:40.124Z,21.19
2022-11-20T21:11:10.046Z,21.16
2022-11-20T21:13:37.918Z,21.14
2022-11-20T21:16:04.804Z,21.15
2022-11-20T21:18:33.016Z,21.14
2022-11-20T21:21:17.991Z,21.16
2022-11-20T21:23:47.720Z,21.15
2022-11-20T21:26:15.978Z,21.14
2022-11-20T21:28:42.652Z,21.13
2022-11-20T21:31:24.699Z,21.11
2022-11-20T21:33:53.157Z,21.11
2022-11-20T21:36:24.731Z,21.09
2022-11-20T21:38:53.801Z,21.09
2022-11-20T21:41:20.203Z,21.08
2022-11-20T21:43:51.599Z,21.07
2022-11-20T21:46:25.385Z,21.07
2022-11-20T21:48:51.953Z,21.07
2022-11-20T21:51:20.733Z,21.06
2022-11-20T21:53:48.190Z,21.04
2022-11-20T21:56:20.125Z,21.05
2022-11-20T21:58:48.301Z,21.05
2022-11-20T22:01:22.169Z,21.03
2022-11-20T22:03:50.288Z,21.00
2022-11-20T22:06:17.521Z,20.98
2022-11-20T22:08:44.556Z,20.99
2022-11-20T22:11:16.777Z,21.02
2022-11-20T22:14:02.045Z,21.01
2022-11-20T22:16:28.471Z,21.01
2022-11-20T22:18:56.694Z,21.00
2022-11-20T22:21:25.972Z,21.01
2022-11-20T22:23:52.958Z,21.00
2022-11-20T22:26:22.504Z,21.00
2022-11-20T22:28:53.426Z,21.00
2022-11-20T22:31:21.791Z,21.00
2022-11-20T22:33:48.735Z,21.01
2022-11-20T22:36:16.155Z,21.01
2022-11-20T22:38:42.794Z,21.01
2022-11-20T22:41:14.573Z,21.01
2022-11-20T22:43:42.416Z,21.01
2022-11-20T22:46:11.508Z,21.00
2022-11-20T22:48:40.715Z,21.01
2022-11-20T22:51:14.685Z,21.01
2022-11-20T22:53:42.536Z,21.00
2022-11-20T22:56:12.362Z,21.00
2022-11-20T22:58:40.535Z,20.98
2022-11-20T23:01:16.349Z,20.99
2022-11-20T23:03:48.196Z,20.98
2022-11-20T23:06:15.880Z,20.98
2022-11-20T23:08:42.925Z,20.98
2022-11-20T23:11:12.709Z,20.97
2022-11-20T23:13:40.247Z,20.96
2022-11-20T23:16:22.371Z,20.96
2022-11-20T23:18:52.973Z,20.97
2022-11-20T23:21:19.374Z,20.95
2022-11-20T23:23:50.793Z,20.95
2022-11-20T23:26:18.902Z,20.92
2022-11-20T23:28:45.772Z,20.91
2022-11-20T23:31:13.431Z,20.91
2022-11-20T23:33:42.341Z,20.90
2022-11-20T23:36:09.536Z,20.90
2022-11-20T23:38:36.221Z,20.90
2022-11-20T23:41:03.082Z,20.89
2022-11-20T23:43:29.446Z,20.88
2022-11-20T23:45:58.051Z,20.87
2022-11-20T23:48:26.981Z,20.86
2022-11-20T23:50:53.323Z,20.84
2022-11-20T23:53:20.510Z,20.85
2022-11-20T23:55:49.579Z,20.83
2022-11-20T23:58:16.955Z,20.82
